Time,TemperatureF,DewpointF,PressureIn,WindDirection,WindDirectionDegrees,WindSpeedMPH,WindSpeedGustMPH,Humidity,HourlyPrecipIn,Conditions,Clouds,dailyrainin,SoftwareType,DateUTC
2013-04-22 00:01:00,36.5,29.3,30.39,ESE,112,2.3,2.3,75,0.00,OVC,OVC,0.00,WeatherDisplay:10.37,2013-04-22 04:01:00,
2013-04-22 00:02:00,36.5,29.3,30.39,ESE,112,2.3,2.3,75,0.00,OVC,OVC,0.00,WeatherDisplay:10.37,2013-04-22 04:02:00,
2013-04-22 00:03:00,36.5,29.3,30.39,ESE,112,1.2,2.0,75,0.00,OVC,OVC,0.00,WeatherDisplay:10.37,2013-04-22 04:03:00,
2013-04-22 00:05:00,36.7,29.8,30.39,ESE,112,3.5,3.5,76,0.00,OVC,OVC,0.00,WeatherDisplay:10.37,2013-04-22 04:05:00,
2013-04-22 00:09:00,36.7,29.8,30.38,ESE,112,2.3,2.3,76,0.00,OVC,OVC,0.00,WeatherDisplay:10.37,2013-04-22 04:09:00,
2013-04-22 00:14:00,36.7,29.8,30.38,ESE,112,1.2,0.0,76,0.00,OVC,OVC,0.00,WeatherDisplay:10.37,2013-04-22 04:14:00,
2013-04-22 00:19:00,36.7,29.8,30.38,ESE,112,2.3,2.3,76,0.00,OVC,OVC,0.00,WeatherDisplay:10.37,2013-04-22 04:19:00,
2013-04-22 00:24:00,36.5,29.7,30.38,ESE,112,2.3,2.3,76,0.00,OVC,OVC,0.00,WeatherDisplay:10.37,2013-04-22 04:24:00,
2013-04-22 00:29:00,36.5,29.7,30.38,ESE,112,2.3,2.3,76,0.00,OVC,OVC,0.00,WeatherDisplay:10.37,2013-04-22 04:29:00,
2013-04-22 00:34:00,36.7,29.8,30.38,ESE,112,2.3,2.3,76,0.00,OVC,OVC,0.00,WeatherDisplay:10.37,2013-04-22 04:34:00,
2013-04-22 00:39:00,36.7,30.1,30.37,ESE,112,2.3,2.3,77,0.00,OVC,OVC,0.00,WeatherDisplay:10.37,2013-04-22 04:39:00,
2013-04-22 00:44:00,36.7,30.1,30.37,ESE,112,2.3,2.3,77,0.00,OVC,OVC,0.00,WeatherDisplay:10.37,2013-04-22 04:44:00,
2013-04-22 00:49:00,36.7,30.1,30.37,ESE,112,2.3,2.3,77,0.00,OVC,OVC,0.00,WeatherDisplay:10.37,2013-04-22 04:49:00,
2013-04-22 00:54:00,36.7,30.1,30.37,ESE,112,0.0,0.0,77,0.00,OVC,OVC,0.00,WeatherDisplay:10.37,2013-04-22 04:54:00,
2013-04-22 00:59:00,36.9,30.3,30.37,ESE,112,2.3,2.3,77,0.00,OVC,OVC,0.00,WeatherDisplay:10.37,2013-04-22 04:59:00,
2013-04-22 01:04:00,36.9,30.3,30.37,ESE,112,1.2,2.2,77,0.00,OVC,OVC,0.00,WeatherDisplay:10.37,2013-04-22 05:04:00,
2013-04-22 01:09:00,36.9,30.3,30.37,ESE,112,1.2,2.2,77,0.00,OVC,OVC,0.00,WeatherDisplay:10.37,2013-04-22 05:09:00,
2013-04-22 01:14:00,37.0,30.8,30.36,ESE,112,1.2,1.2,78,0.00,OVC,OVC,0.00,WeatherDisplay:10.37,2013-04-22 05:14:00,
2013-04-22 01:19:00,37.0,30.8,30.36,ESE,112,1.2,0.0,78,0.00,OVC,OVC,0.00,WeatherDisplay:10.37,2013-04-22 05:19:00,
2013-04-22 01:24:00,37.0,30.8,30.36,ESE,112,2.3,2.3,78,0.00,OVC,OVC,0.00,WeatherDisplay:10.37,2013-04-22 05:24:00,
2013-04-22 01:29:00,36.9,30.6,30.35,ESE,112,2.3,2.3,78,0.00,OVC,OVC,0.00,WeatherDisplay:10.37,2013-04-22 05:29:00,
2013-04-22 01:34:00,36.9,30.6,30.35,ESE,112,2.3,2.3,78,0.00,OVC,OVC,0.00,WeatherDisplay:10.37,2013-04-22 05:34:00,
2013-04-22 01:39:00,37.0,31.1,30.35,ESE,112,2.3,2.3,79,0.00,OVC,OVC,0.00,WeatherDisplay:10.37,2013-04-22 05:39:00,
2013-04-22 01:44:00,37.0,31.1,30.35,ESE,112,2.3,2.3,79,0.00,OVC,OVC,0.00,WeatherDisplay:10.37,2013-04-22 05:44:00,
2013-04-22 01:49:00,37.2,31.3,30.35,ESE,112,2.3,2.3,79,0.00,OVC,OVC,0.00,WeatherDisplay:10.37,2013-04-22 05:49:00,
2013-04-22 01:54:00,37.2,31.3,30.35,ESE,112,0.0,0.0,79,0.00,OVC,OVC,0.00,WeatherDisplay:10.37,2013-04-22 05:54:00,
2013-04-22 01:59:00,37.0,31.1,30.35,ESE,112,0.0,0.0,79,0.00,OVC,OVC,0.00,WeatherDisplay:10.37,2013-04-22 05:59:00,
2013-04-22 02:04:00,37.0,31.1,30.35,ESE,112,0.0,0.0,79,0.00,OVC,OVC,0.00,WeatherDisplay:10.37,2013-04-22 06:04:00,
2013-04-22 02:09:00,37.0,31.1,30.35,ESE,112,0.0,0.0,79,0.00,OVC,OVC,0.00,WeatherDisplay:10.37,2013-04-22 06:09:00,
2013-04-22 02:14:00,36.7,31.1,30.35,ESE,112,0.0,0.0,80,0.00,OVC,OVC,0.00,WeatherDisplay:10.37,2013-04-22 06:14:00,
2013-04-22 02:19:00,36.5,30.9,30.35,ENE,68,0.0,0.0,80,0.00,OVC,OVC,0.00,WeatherDisplay:10.37,2013-04-22 06:19:00,
2013-04-22 02:24:00,36.5,30.9,30.35,ENE,68,0.0,0.0,80,0.00,OVC,OVC,0.00,WeatherDisplay:10.37,2013-04-22 06:24:00,
2013-04-22 02:29:00,36.0,30.4,30.35,ESE,112,0.0,0.0,80,0.00,OVC,OVC,0.00,WeatherDisplay:10.37,2013-04-22 06:29:00,
2013-04-22 02:34:00,36.0,30.4,30.35,ESE,112,0.0,0.0,80,0.00,OVC,OVC,0.00,WeatherDisplay:10.37,2013-04-22 06:34:00,
2013-04-22 02:39:00,35.8,30.2,30.35,ESE,112,0.0,0.0,80,0.00,OVC,OVC,0.00,WeatherDisplay:10.37,2013-04-22 06:39:00,
2013-04-22 02:44:00,35.8,30.2,30.35,ESE,112,0.0,0.0,80,0.00,OVC,OVC,0.00,WeatherDisplay:10.37,2013-04-22 06:44:00,
2013-04-22 02:49:00,35.8,30.5,30.35,ESE,112,0.0,0.0,81,0.00,OVC,OVC,0.00,WeatherDisplay:10.37,2013-04-22 06:49:00,
2013-04-22 02:54:00,36.0,30.7,30.35,ESE,112,0.0,0.0,81,0.00,OVC,OVC,0.00,WeatherDisplay:10.37,2013-04-22 06:54:00,
2013-04-22 02:59:00,35.8,30.5,30.35,ESE,112,0.0,0.0,81,0.00,OVC,OVC,0.00,WeatherDisplay:10.37,2013-04-22 06:59:00,
2013-04-22 03:04:00,35.8,30.5,30.35,ESE,112,0.0,0.0,81,0.00,OVC,OVC,0.00,WeatherDisplay:10.37,2013-04-22 07:04:00,
2013-04-22 03:09:00,35.8,30.5,30.35,ESE,112,0.0,0.0,81,0.00,OVC,OVC,0.00,WeatherDisplay:10.37,2013-04-22 07:09:00,
2013-04-22 03:14:00,35.8,30.5,30.33,ESE,112,0.0,0.0,81,0.00,OVC,OVC,0.00,WeatherDisplay:10.37,2013-04-22 07:14:00,
2013-04-22 03:19:00,35.8,30.5,30.33,ESE,112,0.0,0.0,81,0.00,OVC,OVC,0.00,WeatherDisplay:10.37,2013-04-22 07:19:00,
2013-04-22 03:25:00,35.6,30.3,30.33,ESE,112,0.0,0.0,81,0.00,OVC,OVC,0.00,WeatherDisplay:10.37,2013-04-22 07:25:00,
2013-04-22 03:30:00,35.4,30.2,30.33,ESE,112,0.0,0.0,81,0.00,OVC,OVC,0.00,WeatherDisplay:10.37,2013-04-22 07:30:00,
2013-04-22 03:35:00,35.4,30.2,30.33,ESE,112,0.0,0.0,81,0.00,OVC,OVC,0.00,WeatherDisplay:10.37,2013-04-22 07:35:00,
2013-04-22 03:40:00,35.4,30.2,30.33,ESE,112,0.0,0.0,81,0.00,OVC,OVC,0.00,WeatherDisplay:10.37,2013-04-22 07:40:00,
2013-04-22 03:45:00,35.2,30.3,30.32,ESE,112,0.0,0.0,82,0.00,OVC,OVC,0.00,WeatherDisplay:10.37,2013-04-22 07:45:00,
2013-04-22 03:50:00,35.2,30.3,30.32,ESE,112,0.0,0.0,82,0.00,OVC,OVC,0.00,WeatherDisplay:10.37,2013-04-22 07:50:00,
2013-04-22 03:55:00,35.2,30.3,30.32,ESE,112,0.0,0.0,82,0.00,OVC,OVC,0.00,WeatherDisplay:10.37,2013-04-22 07:55:00,
2013-04-22 04:00:00,35.1,30.1,30.32,ESE,112,0.0,0.0,82,0.00,OVC,OVC,0.00,WeatherDisplay:10.37,2013-04-22 08:00:00,
2013-04-22 04:05:00,35.1,30.1,30.32,ESE,112,0.0,0.0,82,0.00,OVC,OVC,0.00,WeatherDisplay:10.37,2013-04-22 08:05:00,
2013-04-22 04:10:00,35.1,30.1,30.32,ESE,112,0.0,0.0,82,0.00,OVC,OVC,0.00,WeatherDisplay:10.37,2013-04-22 08:10:00,
2013-04-22 04:15:00,34.9,30.2,30.32,ESE,112,0.0,0.0,83,0.00,OVC,OVC,0.00,WeatherDisplay:10.37,2013-04-22 08:15:00,
2013-04-22 04:20:00,34.9,30.2,30.32,ESE,112,0.0,0.0,83,0.00,OVC,OVC,0.00,WeatherDisplay:10.37,2013-04-22 08:20:00,
2013-04-22 04:25:00,34.9,30.2,30.32,ESE,112,0.0,0.0,83,0.00,OVC,OVC,0.00,WeatherDisplay:10.37,2013-04-22 08:25:00,
2013-04-22 04:30:00,34.9,30.2,30.32,ESE,112,0.0,0.0,83,0.00,OVC,OVC,0.00,WeatherDisplay:10.37,2013-04-22 08:30:00,
2013-04-22 04:35:00,34.9,30.2,30.30,ESE,112,0.0,0.0,83,0.00,OVC,OVC,0.00,WeatherDisplay:10.37,2013-04-22 08:35:00,
2013-04-22 04:41:00,34.9,30.2,30.30,ESE,112,0.0,0.0,83,0.00,OVC,OVC,0.00,WeatherDisplay:10.37,2013-04-22 08:41:00,
2013-04-22 04:46:00,34.7,30.1,30.31,ESE,112,0.0,0.0,83,0.00,OVC,OVC,0.00,WeatherDisplay:10.37,2013-04-22 08:46:00,
2013-04-22 04:51:00,34.7,30.1,30.31,ESE,112,0.0,0.0,83,0.00,OVC,OVC,0.00,WeatherDisplay:10.37,2013-04-22 08:51:00,
2013-04-22 04:56:00,34.7,30.1,30.31,ESE,112,0.0,0.0,83,0.00,OVC,OVC,0.00,WeatherDisplay:10.37,2013-04-22 08:56:00,
2013-04-22 05:01:00,34.5,30.2,30.30,ESE,112,0.0,0.0,84,0.00,OVC,OVC,0.00,WeatherDisplay:10.37,2013-04-22 09:01:00,
2013-04-22 05:06:00,34.5,30.2,30.30,ESE,112,0.0,0.0,84,0.00,OVC,OVC,0.00,WeatherDisplay:10.37,2013-04-22 09:06:00,
2013-04-22 05:11:00,34.5,30.2,30.30,ESE,112,0.0,0.0,84,0.00,OVC,OVC,0.00,WeatherDisplay:10.37,2013-04-22 09:11:00,
2013-04-22 05:16:00,34.5,30.2,30.30,ESE,112,0.0,0.0,84,0.00,OVC,OVC,0.00,WeatherDisplay:10.37,2013-04-22 09:16:00,
2013-04-22 05:21:00,34.5,30.2,30.30,ESE,112,0.0,0.0,84,0.00,OVC,OVC,0.00,WeatherDisplay:10.37,2013-04-22 09:21:00,
2013-04-22 05:27:00,34.5,30.5,30.30,ESE,112,0.0,0.0,85,0.00,OVC,OVC,0.00,WeatherDisplay:10.37,2013-04-22 09:27:00,
2013-04-22 05:32:00,34.5,30.5,30.30,ESE,112,0.0,0.0,85,0.00,OVC,OVC,0.00,WeatherDisplay:10.37,2013-04-22 09:32:00,
2013-04-22 05:37:00,34.5,30.5,30.30,ESE,112,0.0,0.0,85,0.00,OVC,OVC,0.00,WeatherDisplay:10.37,2013-04-22 09:37:00,
2013-04-22 05:42:00,34.5,30.5,30.30,ESE,112,0.0,0.0,85,0.00,OVC,OVC,0.00,WeatherDisplay:10.37,2013-04-22 09:42:00,
2013-04-22 05:47:00,34.5,30.5,30.30,ESE,112,0.0,0.0,85,0.00,OVC,OVC,0.00,WeatherDisplay:10.37,2013-04-22 09:47:00,
2013-04-22 05:52:00,34.5,30.5,30.30,ESE,112,0.0,0.0,85,0.00,OVC,OVC,0.00,WeatherDisplay:10.37,2013-04-22 09:52:00,
2013-04-22 05:57:00,34.5,30.5,30.29,East,90,0.0,0.0,85,0.00,OVC,OVC,0.00,WeatherDisplay:10.37,2013-04-22 09:57:00,
2013-04-22 06:02:00,34.5,30.5,30.29,ENE,68,0.0,0.0,85,0.00,OVC,OVC,0.00,WeatherDisplay:10.37,2013-04-22 10:02:00,
2013-04-22 06:07:00,34.5,30.5,30.29,ENE,68,0.0,0.0,85,0.00,OVC,OVC,0.00,WeatherDisplay:10.37,2013-04-22 10:07:00,
2013-04-22 06:12:00,34.5,30.5,30.29,ENE,68,0.0,0.0,85,0.00,OVC,OVC,0.00,WeatherDisplay:10.37,2013-04-22 10:12:00,
2013-04-22 06:17:00,34.5,30.5,30.29,ENE,68,0.0,0.0,85,0.00,OVC,OVC,0.00,WeatherDisplay:10.37,2013-04-22 10:17:00,
2013-04-22 06:22:00,34.5,30.5,30.29,ENE,68,0.0,0.0,85,0.00,OVC,OVC,0.00,WeatherDisplay:10.37,2013-04-22 10:22:00,
2013-04-22 06:27:00,34.3,30.6,30.29,ENE,68,0.0,0.0,86,0.00,OVC,OVC,0.00,WeatherDisplay:10.37,2013-04-22 10:27:00,
2013-04-22 06:32:00,34.3,30.6,30.29,ENE,68,0.0,0.0,86,0.00,OVC,OVC,0.00,WeatherDisplay:10.37,2013-04-22 10:32:00,
2013-04-22 06:37:00,34.3,30.6,30.29,ENE,68,0.0,0.0,86,0.00,OVC,OVC,0.00,WeatherDisplay:10.37,2013-04-22 10:37:00,
2013-04-22 06:42:00,34.3,30.6,30.30,ENE,68,0.0,0.0,86,0.00,OVC,OVC,0.00,WeatherDisplay:10.37,2013-04-22 10:42:00,
2013-04-22 06:47:00,34.5,30.8,30.30,ENE,68,0.0,0.0,86,0.00,OVC,OVC,0.00,WeatherDisplay:10.37,2013-04-22 10:47:00,
2013-04-22 06:52:00,34.5,30.8,30.30,NE,45,0.0,0.0,86,0.00,OVC,OVC,0.00,WeatherDisplay:10.37,2013-04-22 10:52:00,
2013-04-22 06:57:00,34.5,30.8,30.30,NE,45,0.0,0.0,86,0.00,OVC,OVC,0.00,WeatherDisplay:10.37,2013-04-22 10:57:00,
2013-04-22 07:02:00,34.5,31.0,30.30,NE,45,0.0,0.0,87,0.00,OVC,OVC,0.00,WeatherDisplay:10.37,2013-04-22 11:02:00,
2013-04-22 07:07:00,34.5,31.0,30.30,NE,45,0.0,0.0,87,0.00,OVC,OVC,0.00,WeatherDisplay:10.37,2013-04-22 11:07:00,
2013-04-22 07:12:00,34.7,31.2,30.30,NE,45,0.0,0.0,87,0.00,OVC,OVC,0.00,WeatherDisplay:10.37,2013-04-22 11:12:00,
2013-04-22 07:17:00,34.7,31.2,30.30,NE,45,0.0,0.0,87,0.00,OVC,OVC,0.00,WeatherDisplay:10.37,2013-04-22 11:17:00,
2013-04-22 07:22:00,34.7,31.2,30.30,NE,45,0.0,0.0,87,0.00,OVC,OVC,0.00,WeatherDisplay:10.37,2013-04-22 11:22:00,
2013-04-22 07:27:00,35.2,31.8,30.30,NE,45,0.0,0.0,87,0.00,OVC,OVC,0.00,WeatherDisplay:10.37,2013-04-22 11:27:00,
2013-04-22 07:32:00,35.4,31.9,30.30,NE,45,0.0,0.0,87,0.00,OVC,OVC,0.00,WeatherDisplay:10.37,2013-04-22 11:32:00,
2013-04-22 07:37:00,35.4,31.9,30.30,NE,45,0.0,0.0,87,0.00,OVC,OVC,0.00,WeatherDisplay:10.37,2013-04-22 11:37:00,
2013-04-22 07:42:00,35.8,32.3,30.30,NE,45,0.0,0.0,87,0.00,OVC,OVC,0.00,WeatherDisplay:10.37,2013-04-22 11:42:00,
2013-04-22 07:47:00,36.1,32.6,30.30,NE,45,0.0,0.0,87,0.00,OVC,OVC,0.00,WeatherDisplay:10.37,2013-04-22 11:47:00,
2013-04-22 07:52:00,36.3,32.8,30.30,NE,45,0.0,0.0,87,0.00,OVC,OVC,0.00,WeatherDisplay:10.37,2013-04-22 11:52:00,
2013-04-22 07:57:00,36.7,33.5,30.31,NE,45,0.0,0.0,88,0.00,OVC,OVC,0.00,WeatherDisplay:10.37,2013-04-22 11:57:00,
2013-04-22 08:02:00,36.7,33.5,30.31,NE,45,0.0,0.0,88,0.00,OVC,OVC,0.00,WeatherDisplay:10.37,2013-04-22 12:02:00,
2013-04-22 08:07:00,37.4,34.2,30.31,NE,45,0.0,0.0,88,0.00,OVC,OVC,0.00,WeatherDisplay:10.37,2013-04-22 12:07:00,
2013-04-22 08:12:00,37.9,34.7,30.31,NE,45,0.0,0.0,88,0.00,OVC,OVC,0.00,WeatherDisplay:10.37,2013-04-22 12:12:00,
2013-04-22 08:17:00,38.5,35.2,30.31,NE,45,0.0,0.0,88,0.00,OVC,OVC,0.00,WeatherDisplay:10.37,2013-04-22 12:17:00,
2013-04-22 08:22:00,38.5,35.2,30.31,ESE,112,1.2,1.2,88,0.00,OVC,OVC,0.00,WeatherDisplay:10.37,2013-04-22 12:22:00,
2013-04-22 08:27:00,39.9,36.7,30.31,ESE,112,1.2,1.2,88,0.00,OVC,OVC,0.00,WeatherDisplay:10.37,2013-04-22 12:27:00,
2013-04-22 08:32:00,40.6,37.4,30.31,ESE,112,1.2,1.2,88,0.00,OVC,OVC,0.00,WeatherDisplay:10.37,2013-04-22 12:32:00,
2013-04-22 08:37:00,41.5,38.5,30.31,SE,135,2.3,2.3,89,0.00,OVC,OVC,0.00,WeatherDisplay:10.37,2013-04-22 12:37:00,
2013-04-22 08:42:00,41.7,38.7,30.31,ESE,112,1.2,1.4,89,0.00,OVC,OVC,0.00,WeatherDisplay:10.37,2013-04-22 12:42:00,
2013-04-22 08:47:00,43.0,40.0,30.31,ESE,112,2.3,2.3,89,0.00,OVC,OVC,0.00,WeatherDisplay:10.37,2013-04-22 12:47:00,
2013-04-22 08:52:00,43.2,40.1,30.31,ESE,112,3.5,3.5,89,0.00,OVC,OVC,0.00,WeatherDisplay:10.37,2013-04-22 12:52:00,
2013-04-22 08:57:00,43.9,40.8,30.31,ESE,112,2.3,2.3,89,0.00,OVC,OVC,0.00,WeatherDisplay:10.37,2013-04-22 12:57:00,
2013-04-22 09:02:00,44.4,41.4,30.31,ESE,112,0.0,1.0,89,0.00,OVC,OVC,0.00,WeatherDisplay:10.37,2013-04-22 13:02:00,
2013-04-22 09:07:00,45.1,41.2,30.31,ESE,112,2.3,2.3,86,0.00,OVC,OVC,0.00,WeatherDisplay:10.37,2013-04-22 13:07:00,
2013-04-22 09:12:00,45.1,41.2,30.31,ESE,112,2.3,2.3,86,0.00,OVC,OVC,0.00,WeatherDisplay:10.37,2013-04-22 13:12:00,
2013-04-22 09:17:00,46.0,41.2,30.30,ESE,112,2.3,2.3,83,0.00,OVC,OVC,0.00,WeatherDisplay:10.37,2013-04-22 13:17:00,
2013-04-22 09:22:00,46.6,41.7,30.30,NE,45,0.0,3.1,83,0.00,OVC,OVC,0.00,WeatherDisplay:10.37,2013-04-22 13:22:00,
2013-04-22 09:27:00,46.9,41.7,30.30,NE,45,0.0,0.0,82,0.00,OVC,OVC,0.00,WeatherDisplay:10.37,2013-04-22 13:27:00,
2013-04-22 09:32:00,47.5,42.3,30.30,ESE,112,2.3,2.6,82,0.00,OVC,OVC,0.00,WeatherDisplay:10.37,2013-04-22 13:32:00,
2013-04-22 09:37:00,47.8,42.6,30.30,ENE,68,1.2,1.3,82,0.00,OVC,OVC,0.00,WeatherDisplay:10.37,2013-04-22 13:37:00,
2013-04-22 09:42:00,48.0,41.2,30.30,ESE,112,0.0,0.0,77,0.00,OVC,OVC,0.00,WeatherDisplay:10.37,2013-04-22 13:42:00,
2013-04-22 09:47:00,48.6,41.0,30.30,ESE,112,2.3,2.3,75,0.00,OVC,OVC,0.00,WeatherDisplay:10.37,2013-04-22 13:47:00,
2013-04-22 09:52:00,48.7,41.2,30.30,ESE,112,2.3,2.3,75,0.00,OVC,OVC,0.00,WeatherDisplay:10.37,2013-04-22 13:52:00,
2013-04-22 09:57:00,49.3,41.7,30.30,SE,135,2.3,2.3,75,0.00,OVC,OVC,0.00,WeatherDisplay:10.37,2013-04-22 13:57:00,
2013-04-22 10:02:00,49.6,42.0,30.30,NE,45,3.5,3.5,75,0.00,OVC,OVC,0.00,WeatherDisplay:10.37,2013-04-22 14:02:00,
2013-04-22 10:07:00,49.8,40.8,30.30,SE,135,2.3,2.3,71,0.00,OVC,OVC,0.00,WeatherDisplay:10.37,2013-04-22 14:07:00,
2013-04-22 10:12:00,50.2,41.1,30.30,SE,135,2.3,2.3,71,0.00,OVC,OVC,0.00,WeatherDisplay:10.37,2013-04-22 14:12:00,
2013-04-22 10:17:00,50.5,40.7,30.30,ESE,112,2.3,2.3,69,0.00,OVC,OVC,0.00,WeatherDisplay:10.37,2013-04-22 14:17:00,
2013-04-22 10:22:00,50.7,40.9,30.30,ESE,112,1.2,1.2,69,0.00,OVC,OVC,0.00,WeatherDisplay:10.37,2013-04-22 14:22:00,
2013-04-22 10:27:00,51.1,41.3,30.30,NE,45,0.0,0.0,69,0.00,OVC,OVC,0.00,WeatherDisplay:10.37,2013-04-22 14:27:00,
2013-04-22 10:32:00,51.3,41.4,30.30,ENE,68,2.3,2.3,69,0.00,OVC,OVC,0.00,WeatherDisplay:10.37,2013-04-22 14:32:00,
2013-04-22 10:37:00,51.6,40.6,30.30,SE,135,2.3,2.3,66,0.00,OVC,OVC,0.00,WeatherDisplay:10.37,2013-04-22 14:37:00,
2013-04-22 10:42:00,51.8,40.8,30.30,NE,45,0.0,0.0,66,0.00,OVC,OVC,0.00,WeatherDisplay:10.37,2013-04-22 14:42:00,
2013-04-22 10:47:00,52.5,41.5,30.30,NE,45,2.3,2.3,66,0.00,OVC,OVC,0.00,WeatherDisplay:10.37,2013-04-22 14:47:00,
2013-04-22 10:52:00,52.9,41.8,30.30,SSE,158,3.5,3.5,66,0.00,OVC,OVC,0.00,WeatherDisplay:10.37,2013-04-22 14:52:00,
2013-04-22 10:57:00,53.8,42.7,30.30,ENE,68,1.2,1.4,66,0.00,OVC,OVC,0.00,WeatherDisplay:10.37,2013-04-22 14:57:00,
2013-04-22 11:02:00,54.0,42.9,30.30,NNE,22,0.0,0.0,66,0.00,OVC,OVC,0.00,WeatherDisplay:10.37,2013-04-22 15:02:00,
2013-04-22 11:07:00,54.1,43.0,30.30,ESE,112,3.5,3.5,66,0.00,OVC,OVC,0.00,WeatherDisplay:10.37,2013-04-22 15:07:00,
2013-04-22 11:12:00,54.1,43.0,30.30,SE,135,1.2,1.8,66,0.00,OVC,OVC,0.00,WeatherDisplay:10.37,2013-04-22 15:12:00,
2013-04-22 11:17:00,54.7,41.9,30.29,ESE,112,2.3,2.3,62,0.00,OVC,OVC,0.00,WeatherDisplay:10.37,2013-04-22 15:17:00,
2013-04-22 11:22:00,55.0,42.3,30.29,ESE,112,2.3,2.3,62,0.00,OVC,OVC,0.00,WeatherDisplay:10.37,2013-04-22 15:22:00,
2013-04-22 11:27:00,55.2,41.6,30.29,SE,135,2.3,2.3,60,0.00,OVC,OVC,0.00,WeatherDisplay:10.37,2013-04-22 15:27:00,
2013-04-22 11:32:00,55.2,41.6,30.29,ESE,112,1.2,1.4,60,0.00,OVC,OVC,0.00,WeatherDisplay:10.37,2013-04-22 15:32:00,
2013-04-22 11:37:00,55.6,41.9,30.29,SE,135,2.3,2.3,60,0.00,OVC,OVC,0.00,WeatherDisplay:10.37,2013-04-22 15:37:00,
2013-04-22 11:42:00,55.9,42.2,30.29,SE,135,2.3,2.3,60,0.00,OVC,OVC,0.00,WeatherDisplay:10.37,2013-04-22 15:42:00,
2013-04-22 11:47:00,55.9,42.2,30.29,North,0,2.3,2.3,60,0.00,OVC,OVC,0.00,WeatherDisplay:10.37,2013-04-22 15:47:00,
2013-04-22 11:52:00,56.1,42.4,30.29,SE,135,2.3,0.0,60,0.00,OVC,OVC,0.00,WeatherDisplay:10.37,2013-04-22 15:52:00,
2013-04-22 11:58:00,56.1,42.4,30.29,SE,135,1.2,2.8,60,0.00,OVC,OVC,0.00,WeatherDisplay:10.37,2013-04-22 15:58:00,
2013-04-22 12:03:00,56.8,43.1,30.29,SE,135,3.5,3.5,60,0.00,OVC,OVC,0.00,WeatherDisplay:10.37,2013-04-22 16:03:00,
2013-04-22 12:08:00,57.6,43.8,30.29,SE,135,3.5,3.5,60,0.00,OVC,OVC,0.00,WeatherDisplay:10.37,2013-04-22 16:08:00,
2013-04-22 12:13:00,57.7,43.1,30.29,ESE,112,3.5,3.5,58,0.00,OVC,OVC,0.00,WeatherDisplay:10.37,2013-04-22 16:13:00,
2013-04-22 12:18:00,58.3,43.6,30.29,ENE,68,2.3,2.3,58,0.00,OVC,OVC,0.00,WeatherDisplay:10.37,2013-04-22 16:18:00,
2013-04-22 12:23:00,58.3,43.6,30.29,ESE,112,2.3,2.3,58,0.00,OVC,OVC,0.00,WeatherDisplay:10.37,2013-04-22 16:23:00,
2013-04-22 12:28:00,58.6,43.9,30.29,SE,135,2.3,2.3,58,0.00,OVC,OVC,0.00,WeatherDisplay:10.37,2013-04-22 16:28:00,
2013-04-22 12:33:00,58.8,43.6,30.29,SE,135,3.5,4.0,57,0.00,OVC,OVC,0.00,WeatherDisplay:10.37,2013-04-22 16:33:00,
2013-04-22 12:38:00,58.8,43.6,30.29,SE,135,2.3,2.3,57,0.00,OVC,OVC,0.00,WeatherDisplay:10.37,2013-04-22 16:38:00,
2013-04-22 12:43:00,58.8,43.6,30.28,ENE,68,2.3,2.7,57,0.00,OVC,OVC,0.00,WeatherDisplay:10.37,2013-04-22 16:43:00,
2013-04-22 12:48:00,58.8,43.6,30.28,SE,135,3.5,4.5,57,0.00,OVC,OVC,0.00,WeatherDisplay:10.37,2013-04-22 16:48:00,
2013-04-22 12:53:00,58.6,43.4,30.28,NE,45,2.3,0.0,57,0.00,OVC,OVC,0.00,WeatherDisplay:10.37,2013-04-22 16:53:00,
2013-04-22 12:58:00,58.3,42.2,30.28,NE,45,3.5,3.5,55,0.00,OVC,OVC,0.00,WeatherDisplay:10.37,2013-04-22 16:58:00,
2013-04-22 13:03:00,58.1,42.0,30.28,NE,45,3.5,3.5,55,0.00,OVC,OVC,0.00,WeatherDisplay:10.37,2013-04-22 17:03:00,
2013-04-22 13:08:00,57.7,41.7,30.28,ESE,112,0.0,0.0,55,0.00,OVC,OVC,0.00,WeatherDisplay:10.37,2013-04-22 17:08:00,
2013-04-22 13:13:00,57.9,41.8,30.28,North,1,57.5,57.5,55,0.00,OVC,OVC,0.00,WeatherDisplay:10.37,2013-04-22 17:13:00,
2013-04-22 13:18:00,58.3,42.2,30.28,ESE,112,57.5,57.6,55,0.00,OVC,OVC,0.00,WeatherDisplay:10.37,2013-04-22 17:18:00,
2013-04-22 13:23:00,58.3,43.6,30.28,SE,135,2.3,2.3,58,0.00,OVC,OVC,0.00,WeatherDisplay:10.37,2013-04-22 17:23:00,
2013-04-22 13:28:00,59.4,44.6,30.28,East,90,1.2,2.8,58,0.00,OVC,OVC,0.00,WeatherDisplay:10.37,2013-04-22 17:28:00,
2013-04-22 13:33:00,59.5,43.8,30.26,ESE,112,2.3,2.3,56,0.00,OVC,OVC,0.00,WeatherDisplay:10.37,2013-04-22 17:33:00,
2013-04-22 13:38:00,59.5,43.8,30.26,ESE,112,0.0,2.8,56,0.00,OVC,OVC,0.00,WeatherDisplay:10.37,2013-04-22 17:38:00,
2013-04-22 13:43:00,59.5,43.8,30.26,ESE,112,3.5,3.5,56,0.00,OVC,OVC,0.00,WeatherDisplay:10.37,2013-04-22 17:43:00,
2013-04-22 13:48:00,59.5,43.8,30.26,ESE,112,2.3,2.3,56,0.00,OVC,OVC,0.00,WeatherDisplay:10.37,2013-04-22 17:48:00,
2013-04-22 13:53:00,59.5,43.8,30.26,ESE,112,3.5,3.5,56,0.00,OVC,OVC,0.00,WeatherDisplay:10.37,2013-04-22 17:53:00,
2013-04-22 13:58:00,59.7,42.6,30.26,ESE,112,1.2,3.0,53,0.00,OVC,OVC,0.00,WeatherDisplay:10.37,2013-04-22 17:58:00,
2013-04-22 14:03:00,59.7,42.6,30.26,ESE,112,3.5,3.5,53,0.00,OVC,OVC,0.00,WeatherDisplay:10.37,2013-04-22 18:03:00,
2013-04-22 14:08:00,60.1,42.9,30.26,East,90,0.0,0.0,53,0.00,OVC,OVC,0.00,WeatherDisplay:10.37,2013-04-22 18:08:00,
2013-04-22 14:13:00,60.3,43.1,30.26,ESE,112,4.6,4.6,53,0.00,OVC,OVC,0.00,WeatherDisplay:10.37,2013-04-22 18:13:00,
2013-04-22 14:18:00,60.4,43.2,30.24,ESE,112,0.0,0.0,53,0.00,OVC,OVC,0.00,WeatherDisplay:10.37,2013-04-22 18:18:00,
2013-04-22 14:23:00,60.4,43.2,30.24,NE,45,2.3,2.4,53,0.00,OVC,OVC,0.00,WeatherDisplay:10.37,2013-04-22 18:23:00,
2013-04-22 14:28:00,60.1,42.9,30.24,NE,45,2.3,3.4,53,0.00,OVC,OVC,0.00,WeatherDisplay:10.37,2013-04-22 18:28:00,
2013-04-22 14:33:00,60.4,43.2,30.23,NE,45,2.3,2.3,53,0.00,OVC,OVC,0.00,WeatherDisplay:10.37,2013-04-22 18:33:00,
2013-04-22 14:38:00,60.6,43.4,30.23,ENE,68,2.3,2.3,53,0.00,OVC,OVC,0.00,WeatherDisplay:10.37,2013-04-22 18:38:00,
2013-04-22 14:43:00,60.6,38.6,30.23,ENE,68,3.5,3.5,44,0.00,OVC,OVC,0.00,WeatherDisplay:10.37,2013-04-22 18:43:00,
2013-04-22 14:48:00,60.6,38.6,30.23,ESE,112,2.3,2.3,44,0.00,OVC,OVC,0.00,WeatherDisplay:10.37,2013-04-22 18:48:00,
2013-04-22 14:53:00,60.6,38.6,30.23,ESE,112,2.3,2.3,44,0.00,OVC,OVC,0.00,WeatherDisplay:10.37,2013-04-22 18:53:00,
2013-04-22 14:58:00,61.0,38.9,30.23,ENE,68,3.5,3.5,44,0.00,OVC,OVC,0.00,WeatherDisplay:10.37,2013-04-22 18:58:00,
2013-04-22 15:03:00,61.0,38.9,30.23,ENE,68,2.3,2.3,44,0.00,OVC,OVC,0.00,WeatherDisplay:10.37,2013-04-22 19:03:00,
2013-04-22 15:08:00,61.0,37.1,30.21,NNE,22,0.0,0.0,41,0.00,OVC,OVC,0.00,WeatherDisplay:10.37,2013-04-22 19:08:00,
2013-04-22 15:13:00,61.3,37.4,30.21,ESE,112,3.5,3.5,41,0.00,OVC,OVC,0.00,WeatherDisplay:10.37,2013-04-22 19:13:00,
2013-04-22 15:18:00,61.5,36.3,30.21,NE,45,3.5,3.5,39,0.00,OVC,OVC,0.00,WeatherDisplay:10.37,2013-04-22 19:18:00,
2013-04-22 15:23:00,61.5,36.3,30.21,ESE,112,4.6,4.7,39,0.00,OVC,OVC,0.00,WeatherDisplay:10.37,2013-04-22 19:23:00,
2013-04-22 15:28:00,62.2,37.0,30.21,ESE,112,1.2,3.0,39,0.00,OVC,OVC,0.00,WeatherDisplay:10.37,2013-04-22 19:28:00,
2013-04-22 15:33:00,62.2,36.3,30.20,ESE,112,2.3,2.4,38,0.00,OVC,OVC,0.00,WeatherDisplay:10.37,2013-04-22 19:33:00,
2013-04-22 15:38:00,62.2,37.0,30.20,ENE,68,2.3,2.6,39,0.00,OVC,OVC,0.00,WeatherDisplay:10.37,2013-04-22 19:38:00,
2013-04-22 15:43:00,62.4,36.5,30.20,ENE,68,2.3,2.4,38,0.00,OVC,OVC,0.00,WeatherDisplay:10.37,2013-04-22 19:43:00,
2013-04-22 15:48:00,62.4,36.5,30.20,ESE,112,2.3,2.3,38,0.00,OVC,OVC,0.00,WeatherDisplay:10.37,2013-04-22 19:48:00,
2013-04-22 15:53:00,62.4,36.5,30.20,ESE,112,3.5,3.5,38,0.00,OVC,OVC,0.00,WeatherDisplay:10.37,2013-04-22 19:53:00,
2013-04-22 15:58:00,62.4,36.5,30.20,SE,135,0.0,0.2,38,0.00,OVC,OVC,0.00,WeatherDisplay:10.37,2013-04-22 19:58:00,
2013-04-22 16:03:00,62.4,36.5,30.20,ESE,112,3.5,4.0,38,0.00,OVC,OVC,0.00,WeatherDisplay:10.37,2013-04-22 20:03:00,
2013-04-22 16:08:00,62.4,34.4,30.20,ENE,68,2.3,3.5,35,0.00,OVC,OVC,0.00,WeatherDisplay:10.37,2013-04-22 20:08:00,
2013-04-22 16:13:00,62.2,34.2,30.20,ESE,112,2.3,2.3,35,0.00,OVC,OVC,0.00,WeatherDisplay:10.37,2013-04-22 20:13:00,
2013-04-22 16:18:00,61.9,34.6,30.20,ESE,112,3.5,3.5,36,0.00,OVC,OVC,0.00,WeatherDisplay:10.37,2013-04-22 20:18:00,
2013-04-22 16:23:00,62.1,34.1,30.18,ENE,68,3.5,3.5,35,0.00,OVC,OVC,0.00,WeatherDisplay:10.37,2013-04-22 20:23:00,
2013-04-22 16:28:00,61.9,33.9,30.18,East,90,0.0,2.2,35,0.00,OVC,OVC,0.00,WeatherDisplay:10.37,2013-04-22 20:28:00,
2013-04-22 16:33:00,61.5,33.6,30.18,ESE,112,3.5,3.5,35,0.00,OVC,OVC,0.00,WeatherDisplay:10.37,2013-04-22 20:33:00,
2013-04-22 16:38:00,61.5,34.3,30.18,NE,45,0.0,0.0,36,0.00,OVC,OVC,0.00,WeatherDisplay:10.37,2013-04-22 20:38:00,
2013-04-22 16:43:00,61.7,34.5,30.18,ENE,68,3.5,3.5,36,0.00,OVC,OVC,0.00,WeatherDisplay:10.37,2013-04-22 20:43:00,
2013-04-22 16:48:00,61.5,34.3,30.18,ESE,112,2.3,2.3,36,0.00,OVC,OVC,0.00,WeatherDisplay:10.37,2013-04-22 20:48:00,
2013-04-22 16:53:00,61.5,34.3,30.18,ENE,68,3.5,3.5,36,0.00,OVC,OVC,0.00,WeatherDisplay:10.37,2013-04-22 20:53:00,
2013-04-22 16:58:00,61.5,34.3,30.18,East,90,0.0,2.0,36,0.00,OVC,OVC,0.00,WeatherDisplay:10.37,2013-04-22 20:58:00,
2013-04-22 17:03:00,61.2,34.0,30.18,ESE,112,2.3,2.3,36,0.00,OVC,OVC,0.00,WeatherDisplay:10.37,2013-04-22 21:03:00,
2013-04-22 17:08:00,61.0,33.8,30.18,ESE,112,2.3,3.3,36,0.00,OVC,OVC,0.00,WeatherDisplay:10.37,2013-04-22 21:08:00,
2013-04-22 17:13:00,61.0,33.8,30.18,ESE,112,3.5,3.9,36,0.00,OVC,OVC,0.00,WeatherDisplay:10.37,2013-04-22 21:13:00,
2013-04-22 17:18:00,61.0,35.2,30.18,ESE,112,4.6,4.6,38,0.00,OVC,OVC,0.00,WeatherDisplay:10.37,2013-04-22 21:18:00,
2013-04-22 17:23:00,61.0,35.2,30.18,ESE,112,1.2,1.5,38,0.00,OVC,OVC,0.00,WeatherDisplay:10.37,2013-04-22 21:23:00,
2013-04-22 17:28:00,61.0,35.2,30.17,ENE,68,2.3,2.3,38,0.00,OVC,OVC,0.00,WeatherDisplay:10.37,2013-04-22 21:28:00,
2013-04-22 17:33:00,60.6,34.9,30.17,SE,135,3.5,3.5,38,0.00,OVC,OVC,0.00,WeatherDisplay:10.37,2013-04-22 21:33:00,
2013-04-22 17:38:00,60.6,34.9,30.17,ESE,112,1.2,2.5,38,0.00,OVC,OVC,0.00,WeatherDisplay:10.37,2013-04-22 21:38:00,
2013-04-22 17:43:00,60.6,34.9,30.17,ESE,112,3.5,3.5,38,0.00,OVC,OVC,0.00,WeatherDisplay:10.37,2013-04-22 21:43:00,
2013-04-22 17:48:00,60.3,34.5,30.17,East,90,2.3,2.3,38,0.00,OVC,OVC,0.00,WeatherDisplay:10.37,2013-04-22 21:48:00,
2013-04-22 17:53:00,59.9,34.2,30.17,ESE,112,3.5,3.5,38,0.00,OVC,OVC,0.00,WeatherDisplay:10.37,2013-04-22 21:53:00,
2013-04-22 17:58:00,59.7,34.0,30.17,ESE,112,2.3,0.0,38,0.00,OVC,OVC,0.00,WeatherDisplay:10.37,2013-04-22 21:58:00,
2013-04-22 18:03:00,59.5,35.2,30.17,ESE,112,2.3,2.3,40,0.00,OVC,OVC,0.00,WeatherDisplay:10.37,2013-04-22 22:03:00,
2013-04-22 18:08:00,59.4,35.0,30.17,ESE,112,1.2,2.9,40,0.00,OVC,OVC,0.00,WeatherDisplay:10.37,2013-04-22 22:08:00,
2013-04-22 18:13:00,59.4,35.0,30.17,ESE,112,2.3,2.3,40,0.00,OVC,OVC,0.00,WeatherDisplay:10.37,2013-04-22 22:13:00,
2013-04-22 18:18:00,59.2,35.5,30.17,ESE,112,3.5,3.5,41,0.00,OVC,OVC,0.00,WeatherDisplay:10.37,2013-04-22 22:18:00,
2013-04-22 18:23:00,58.8,35.8,30.17,SE,135,3.5,3.5,42,0.00,OVC,OVC,0.00,WeatherDisplay:10.37,2013-04-22 22:23:00,
2013-04-22 18:28:00,58.8,36.4,30.16,ESE,112,3.5,3.5,43,0.00,OVC,OVC,0.00,WeatherDisplay:10.37,2013-04-22 22:28:00,
2013-04-22 18:33:00,57.9,35.5,30.16,ESE,112,3.5,3.5,43,0.00,OVC,OVC,0.00,WeatherDisplay:10.37,2013-04-22 22:33:00,
2013-04-22 18:38:00,57.7,36.0,30.16,ESE,112,3.5,3.6,44,0.00,OVC,OVC,0.00,WeatherDisplay:10.37,2013-04-22 22:38:00,
2013-04-22 18:43:00,57.7,36.0,30.16,ESE,112,4.6,4.6,44,0.00,OVC,OVC,0.00,WeatherDisplay:10.37,2013-04-22 22:43:00,
2013-04-22 18:48:00,57.0,36.4,30.15,ESE,112,2.3,2.3,46,0.00,OVC,OVC,0.00,WeatherDisplay:10.37,2013-04-22 22:48:00,
2013-04-22 18:53:00,57.4,36.8,30.15,ESE,112,2.3,2.3,46,0.00,OVC,OVC,0.00,WeatherDisplay:10.37,2013-04-22 22:53:00,
2013-04-22 18:58:00,57.4,36.8,30.15,ESE,112,2.3,2.3,46,0.00,OVC,OVC,0.00,WeatherDisplay:10.37,2013-04-22 22:58:00,
2013-04-22 19:03:00,57.4,34.5,30.15,ESE,112,2.3,2.3,42,0.00,OVC,OVC,0.00,WeatherDisplay:10.37,2013-04-22 23:03:00,
2013-04-22 19:08:00,68.5,44.5,30.15,ESE,112,2.3,2.3,42,0.00,OVC,OVC,0.00,WeatherDisplay:10.37,2013-04-22 23:08:00,
2013-04-22 19:13:00,68.4,44.4,30.15,SE,135,3.5,4.0,42,0.00,OVC,OVC,0.00,WeatherDisplay:10.37,2013-04-22 23:13:00,
2013-04-22 19:18:00,63.5,38.7,30.15,ESE,112,4.6,4.6,40,0.00,OVC,OVC,0.00,WeatherDisplay:10.37,2013-04-22 23:18:00,
2013-04-22 19:23:00,60.4,36.6,30.15,ESE,112,3.5,3.5,41,0.00,OVC,OVC,0.00,WeatherDisplay:10.37,2013-04-22 23:23:00,
2013-04-22 19:28:00,58.6,35.0,30.15,ESE,112,3.5,3.5,41,0.00,OVC,OVC,0.00,WeatherDisplay:10.37,2013-04-22 23:28:00,
2013-04-22 19:33:00,57.9,34.3,30.15,ESE,112,3.5,3.5,41,0.00,OVC,OVC,0.00,WeatherDisplay:10.37,2013-04-22 23:33:00,
2013-04-22 19:38:00,56.8,33.4,30.15,ESE,112,2.3,2.3,41,0.00,OVC,OVC,0.00,WeatherDisplay:10.37,2013-04-22 23:38:00,
2013-04-22 19:43:00,55.6,36.7,30.15,ESE,112,3.5,3.7,49,0.00,OVC,OVC,0.00,WeatherDisplay:10.37,2013-04-22 23:43:00,
2013-04-22 19:48:00,55.0,36.2,30.15,ESE,112,3.5,3.5,49,0.00,OVC,OVC,0.00,WeatherDisplay:10.37,2013-04-22 23:48:00,
2013-04-22 19:53:00,55.2,36.4,30.15,SE,135,0.0,2.2,49,0.00,OVC,OVC,0.00,WeatherDisplay:10.37,2013-04-22 23:53:00,
2013-04-22 19:58:00,54.0,36.7,30.15,ESE,112,0.7,0.7,52,0.00,OVC,OVC,0.00,WeatherDisplay:10.37,2013-04-22 23:58:00,
2013-04-22 20:03:00,53.2,36.1,30.14,ESE,112,3.5,3.5,52,0.00,OVC,OVC,0.00,WeatherDisplay:10.37,2013-04-23 00:03:00,
2013-04-22 20:08:00,51.6,35.5,30.14,ESE,112,0.0,2.1,54,0.00,OVC,OVC,0.00,WeatherDisplay:10.37,2013-04-23 00:08:00,
2013-04-22 20:13:00,51.4,35.3,30.14,ESE,112,0.0,0.0,54,0.00,OVC,OVC,0.00,WeatherDisplay:10.37,2013-04-23 00:13:00,
2013-04-22 20:18:00,49.8,34.7,30.14,ESE,112,2.3,2.3,56,0.00,OVC,OVC,0.00,WeatherDisplay:10.37,2013-04-23 00:18:00,
2013-04-22 20:23:00,49.3,34.2,30.14,ESE,112,1.2,1.8,56,0.00,OVC,OVC,0.00,WeatherDisplay:10.37,2013-04-23 00:23:00,
2013-04-22 20:28:00,48.0,33.1,30.14,ESE,112,0.0,0.6,56,0.00,OVC,OVC,0.00,WeatherDisplay:10.37,2013-04-23 00:28:00,
2013-04-22 20:33:00,47.8,32.9,30.14,ESE,112,1.2,1.6,56,0.00,OVC,OVC,0.00,WeatherDisplay:10.37,2013-04-23 00:33:00,
2013-04-22 20:38:00,47.3,34.5,30.14,ESE,112,2.3,2.3,61,0.00,OVC,OVC,0.00,WeatherDisplay:10.37,2013-04-23 00:38:00,
2013-04-22 20:43:00,46.8,34.4,30.14,ESE,112,0.0,1.6,62,0.00,OVC,OVC,0.00,WeatherDisplay:10.37,2013-04-23 00:43:00,
2013-04-22 20:48:00,46.6,34.2,30.14,ESE,112,0.0,1.3,62,0.00,OVC,OVC,0.00,WeatherDisplay:10.37,2013-04-23 00:48:00,
2013-04-22 20:53:00,46.0,33.7,30.14,ESE,112,2.3,2.3,62,0.00,OVC,OVC,0.00,WeatherDisplay:10.37,2013-04-23 00:53:00,
2013-04-22 20:58:00,45.7,34.6,30.14,ESE,112,0.0,1.7,65,0.00,OVC,OVC,0.00,WeatherDisplay:10.37,2013-04-23 00:58:00,
2013-04-22 21:03:00,45.7,34.6,30.14,ESE,112,1.2,1.3,65,0.00,OVC,OVC,0.00,WeatherDisplay:10.37,2013-04-23 01:03:00,
2013-04-22 21:08:00,45.5,34.4,30.14,ESE,112,2.3,2.3,65,0.00,OVC,OVC,0.00,WeatherDisplay:10.37,2013-04-23 01:08:00,
2013-04-22 21:13:00,45.5,34.4,30.14,ESE,112,2.3,2.3,65,0.00,OVC,OVC,0.00,WeatherDisplay:10.37,2013-04-23 01:13:00,
2013-04-22 21:18:00,45.0,34.7,30.14,ESE,112,0.0,1.5,67,0.00,OVC,OVC,0.00,WeatherDisplay:10.37,2013-04-23 01:18:00,
2013-04-22 21:23:00,44.8,34.5,30.14,ESE,112,0.0,0.0,67,0.00,OVC,OVC,0.00,WeatherDisplay:10.37,2013-04-23 01:23:00,
2013-04-22 21:28:00,44.4,34.1,30.14,ESE,112,0.0,0.0,67,0.00,OVC,OVC,0.00,WeatherDisplay:10.37,2013-04-23 01:28:00,
2013-04-22 21:33:00,44.2,34.3,30.14,ESE,112,0.0,0.0,68,0.00,OVC,OVC,0.00,WeatherDisplay:10.37,2013-04-23 01:33:00,
2013-04-22 21:38:00,44.1,34.2,30.14,ESE,112,0.0,0.0,68,0.00,OVC,OVC,0.00,WeatherDisplay:10.37,2013-04-23 01:38:00,
2013-04-22 21:43:00,43.9,34.4,30.14,ESE,112,0.0,0.0,69,0.00,OVC,OVC,0.00,WeatherDisplay:10.37,2013-04-23 01:43:00,
2013-04-22 21:48:00,43.5,34.4,30.14,ESE,112,0.0,0.0,70,0.00,OVC,OVC,0.00,WeatherDisplay:10.37,2013-04-23 01:48:00,
2013-04-22 21:53:00,43.5,34.4,30.14,ESE,112,0.0,0.0,70,0.00,OVC,OVC,0.00,WeatherDisplay:10.37,2013-04-23 01:53:00,
2013-04-22 21:58:00,43.3,34.2,30.14,ESE,112,3.5,3.5,70,0.00,OVC,OVC,0.00,WeatherDisplay:10.37,2013-04-23 01:58:00,
2013-04-22 22:03:00,43.2,34.0,30.14,ESE,112,0.0,0.0,70,0.00,OVC,OVC,0.00,WeatherDisplay:10.37,2013-04-23 02:03:00,
2013-04-22 22:08:00,43.2,34.0,30.14,ESE,112,1.2,0.0,70,0.00,OVC,OVC,0.00,WeatherDisplay:10.37,2013-04-23 02:08:00,
2013-04-22 22:13:00,43.0,34.6,30.13,ESE,112,2.3,2.3,72,0.00,OVC,OVC,0.00,WeatherDisplay:10.37,2013-04-23 02:13:00,
2013-04-22 22:18:00,43.0,34.6,30.13,ESE,112,0.0,0.0,72,0.00,OVC,OVC,0.00,WeatherDisplay:10.37,2013-04-23 02:18:00,
2013-04-22 22:23:00,43.0,34.6,30.13,ESE,112,0.0,0.0,72,0.00,OVC,OVC,0.00,WeatherDisplay:10.37,2013-04-23 02:23:00,
2013-04-22 22:28:00,43.0,34.6,30.13,ESE,112,0.0,0.0,72,0.00,OVC,OVC,0.00,WeatherDisplay:10.37,2013-04-23 02:28:00,
2013-04-22 22:33:00,43.0,34.9,30.13,ESE,112,0.0,0.0,73,0.00,OVC,OVC,0.00,WeatherDisplay:10.37,2013-04-23 02:33:00,
2013-04-22 22:38:00,42.6,34.6,30.13,ESE,112,0.0,0.0,73,0.00,OVC,OVC,0.00,WeatherDisplay:10.37,2013-04-23 02:38:00,
2013-04-22 22:43:00,42.6,34.6,30.13,NE,45,0.0,0.0,73,0.00,OVC,OVC,0.00,WeatherDisplay:10.37,2013-04-23 02:43:00,
2013-04-22 22:48:00,42.4,34.4,30.13,ESE,112,0.0,0.0,73,0.00,OVC,OVC,0.00,WeatherDisplay:10.37,2013-04-23 02:48:00,
2013-04-22 22:53:00,42.4,34.4,30.13,ESE,112,0.0,0.0,73,0.00,OVC,OVC,0.00,WeatherDisplay:10.37,2013-04-23 02:53:00,
2013-04-22 22:58:00,42.1,34.4,30.13,ESE,112,0.0,0.0,74,0.00,OVC,OVC,0.00,WeatherDisplay:10.37,2013-04-23 02:58:00,
2013-04-22 23:03:00,42.1,34.4,30.13,ESE,112,0.0,0.0,74,0.00,OVC,OVC,0.00,WeatherDisplay:10.37,2013-04-23 03:03:00,
2013-04-22 23:08:00,42.1,34.4,30.13,ESE,112,0.0,0.0,74,0.00,OVC,OVC,0.00,WeatherDisplay:10.37,2013-04-23 03:08:00,
2013-04-22 23:13:00,42.1,34.4,30.13,NNW,338,0.0,0.0,74,0.00,OVC,OVC,0.00,WeatherDisplay:10.37,2013-04-23 03:13:00,
2013-04-22 23:18:00,42.1,34.4,30.13,NNW,338,0.0,0.0,74,0.00,OVC,OVC,0.00,WeatherDisplay:10.37,2013-04-23 03:18:00,
2013-04-22 23:23:00,42.1,34.4,30.13,NE,45,0.0,0.0,74,0.00,OVC,OVC,0.00,WeatherDisplay:10.37,2013-04-23 03:23:00,
2013-04-22 23:28:00,42.1,35.1,30.13,NE,45,0.0,0.0,76,0.00,OVC,OVC,0.00,WeatherDisplay:10.37,2013-04-23 03:28:00,
2013-04-22 23:33:00,41.9,34.9,30.12,NE,45,0.0,0.0,76,0.00,OVC,OVC,0.00,WeatherDisplay:10.37,2013-04-23 03:33:00,
2013-04-22 23:38:00,41.9,34.9,30.12,NE,45,0.0,0.0,76,0.00,OVC,OVC,0.00,WeatherDisplay:10.37,2013-04-23 03:38:00,
2013-04-22 23:43:00,41.9,34.9,30.12,North,0,0.0,0.0,76,0.00,OVC,OVC,0.00,WeatherDisplay:10.37,2013-04-23 03:43:00,
2013-04-22 23:48:00,41.9,34.9,30.12,North,0,0.0,0.0,76,0.00,OVC,OVC,0.00,WeatherDisplay:10.37,2013-04-23 03:48:00,
2013-04-22 23:53:00,41.9,35.2,30.12,North,0,0.0,0.0,77,0.00,OVC,OVC,0.00,WeatherDisplay:10.37,2013-04-23 03:53:00,
2013-04-22 23:58:00,41.7,35.0,30.12,North,0,0.0,0.0,77,0.00,OVC,OVC,0.00,WeatherDisplay:10.37,2013-04-23 03:58:00,